Farrar, Iowa
Current Conditions -  °F | °C
As of 8:15 AM on Friday 19 Dec 2014 (Local Time) from KIKV Reporting Station
Haze Haze  
Wind Chill: 28°   Ceiling: 4000
Heat Index: 28°   Visibility: 6mi
Dew Point: 27°   Wind: 0mph
Humidity: 93%   Direction: NA
Pressure: 30.27"   Gusts: NA
Location:  41.8542°N, 93.4051°W
Report Text: KIKV 191415Z AUTO 00000KT 6SM BR FEW019 OVC040 M02/M03 A3027 RMK AO2
Loading
Personal Weather Stations






























Interactive Weather Map New forecast layout! Learn more

10-Day Weather Forecast

Advertisements
Track Severe Weather on mobile